createdAt,value
2022-10-05T03:30:27.547Z,3.42
2022-10-05T05:24:53.049Z,4.13
2022-10-05T05:47:20.130Z,4.25
2022-10-05T05:50:33.986Z,4.63
2022-10-05T05:53:46.971Z,5.00
2022-10-05T05:57:09.351Z,5.15
2022-10-05T06:00:56.222Z,5.50
2022-10-05T06:04:50.478Z,5.38
2022-10-05T06:07:49.239Z,5.03
2022-10-05T06:11:29.399Z,4.53
2022-10-05T06:14:52.478Z,5.18
2022-10-05T06:18:21.553Z,5.40
2022-10-05T06:22:27.998Z,5.25
2022-10-05T06:25:41.215Z,5.50
2022-10-05T06:29:11.061Z,4.47
2022-10-05T06:32:41.041Z,4.43
2022-10-05T06:36:26.755Z,4.80
2022-10-05T06:45:06.379Z,4.70
2022-10-05T07:30:32.169Z,4.57
2022-10-05T07:33:56.509Z,5.10
2022-10-05T07:37:31.567Z,4.70
2022-10-05T07:40:48.014Z,5.00
2022-10-05T07:44:02.810Z,4.72
2022-10-05T07:47:30.950Z,5.28
2022-10-05T07:50:49.371Z,4.68
2022-10-05T07:54:05.418Z,4.90
2022-10-05T07:57:22.698Z,5.07
2022-10-05T08:00:47.330Z,4.90
2022-10-05T08:03:57.009Z,4.65
2022-10-05T08:07:06.845Z,5.25
2022-10-05T08:10:40.169Z,5.20
2022-10-05T08:14:00.005Z,4.95
2022-10-05T08:17:16.387Z,5.00
2022-10-05T08:20:36.992Z,4.70
2022-10-05T08:23:46.124Z,4.90
2022-10-05T08:26:53.848Z,4.80
2022-10-05T08:30:01.358Z,4.43
2022-10-05T08:33:10.685Z,4.32
2022-10-05T08:36:14.513Z,4.60
2022-10-05T08:39:20.281Z,5.25
2022-10-05T08:42:48.313Z,5.00
2022-10-05T08:46:14.787Z,4.50
2022-10-05T08:49:45.406Z,5.15
2022-10-05T08:53:05.656Z,4.72
2022-10-05T08:56:10.273Z,4.85
2022-10-05T08:59:48.245Z,5.18
2022-10-05T09:06:33.516Z,5.00
2022-10-05T09:10:01.900Z,4.40
2022-10-05T09:13:38.644Z,4.35
2022-10-05T09:16:58.529Z,4.43
2022-10-05T09:20:17.023Z,4.53
2022-10-05T09:23:44.729Z,4.30
2022-10-05T09:27:11.144Z,4.13
2022-10-05T09:30:27.490Z,4.05
2022-10-05T09:33:53.768Z,4.20
2022-10-05T09:37:22.298Z,4.07
2022-10-05T09:40:53.044Z,4.05
2022-10-05T09:44:22.191Z,4.43
2022-10-05T09:47:36.034Z,3.95
2022-10-05T09:50:59.333Z,4.40
2022-10-05T09:54:03.914Z,4.25
2022-10-05T09:57:43.741Z,4.15
2022-10-05T10:01:33.247Z,3.65
2022-10-05T10:05:01.692Z,3.53
2022-10-05T10:11:56.029Z,3.40
2022-10-05T10:15:41.897Z,3.67
2022-10-05T10:19:28.431Z,3.60
2022-10-05T10:22:45.313Z,3.38
2022-10-05T10:26:08.548Z,3.42
2022-10-05T10:29:36.158Z,3.05
2022-10-05T10:33:15.627Z,3.30
2022-10-05T10:36:19.807Z,3.72
2022-10-05T10:39:39.719Z,3.50
2022-10-05T10:43:05.817Z,3.05
2022-10-05T10:46:32.217Z,3.45
2022-10-05T10:50:04.961Z,3.30
2022-10-05T10:53:43.423Z,3.90
2022-10-05T10:57:08.686Z,3.28
2022-10-05T11:00:16.351Z,3.28
2022-10-05T11:04:09.006Z,2.90
2022-10-05T11:07:27.530Z,2.95
2022-10-05T11:10:58.871Z,3.03
2022-10-05T11:14:24.920Z,3.08
2022-10-05T11:18:04.768Z,3.53
2022-10-05T11:21:23.762Z,3.60
2022-10-05T11:24:46.651Z,3.80
2022-10-05T11:28:00.563Z,3.63
2022-10-05T11:31:27.148Z,3.58
2022-10-05T11:34:38.117Z,3.53
2022-10-05T11:38:01.332Z,3.28
2022-10-05T11:41:20.158Z,3.15
2022-10-05T11:44:24.833Z,3.30
2022-10-05T11:47:45.357Z,3.08
2022-10-05T11:51:14.220Z,3.17
2022-10-05T11:54:26.971Z,3.03
2022-10-05T11:57:56.216Z,3.10
2022-10-05T12:01:15.600Z,3.03
2022-10-05T12:04:23.699Z,3.00
2022-10-05T12:07:54.598Z,3.20
2022-10-05T12:11:07.979Z,2.90
2022-10-05T12:14:41.254Z,2.72
2022-10-05T12:17:49.053Z,2.78
2022-10-05T12:21:19.292Z,2.80
2022-10-05T12:24:37.330Z,2.38
2022-10-05T12:27:44.060Z,2.40
2022-10-05T12:30:51.768Z,2.38
2022-10-05T12:34:07.727Z,2.67
2022-10-05T12:37:32.015Z,2.50
2022-10-05T12:40:39.612Z,2.33
2022-10-05T12:44:11.333Z,2.25
2022-10-05T12:47:19.323Z,2.42
2022-10-05T12:50:47.077Z,1.88
2022-10-05T12:53:56.682Z,2.30
2022-10-05T12:57:05.293Z,2.08
2022-10-05T13:00:20.310Z,1.90
2022-10-05T13:03:24.168Z,2.00
2022-10-05T13:06:45.932Z,2.10
2022-10-05T13:09:59.668Z,1.83
2022-10-05T13:13:18.464Z,2.40
2022-10-05T13:16:38.143Z,1.80
2022-10-05T13:19:45.858Z,2.05
2022-10-05T13:22:57.354Z,1.90
2022-10-05T13:26:07.877Z,2.20
2022-10-05T13:29:38.733Z,2.10
2022-10-05T13:33:04.308Z,2.00
2022-10-05T13:36:44.373Z,2.00
2022-10-05T13:39:55.286Z,1.90
2022-10-05T13:43:04.043Z,2.00
2022-10-05T13:46:18.487Z,1.90
2022-10-05T13:49:21.519Z,1.60
2022-10-05T13:52:34.095Z,1.77
2022-10-05T13:55:47.067Z,1.63
2022-10-05T13:58:51.864Z,1.70
2022-10-05T14:02:17.416Z,1.70
2022-10-05T14:05:25.305Z,1.90
2022-10-05T14:08:31.977Z,1.88
2022-10-05T14:11:35.697Z,1.77
2022-10-05T14:14:52.785Z,1.88
2022-10-05T14:17:54.878Z,1.80
2022-10-05T14:21:22.228Z,2.00
2022-10-05T14:28:24.106Z,1.77
2022-10-05T14:31:36.047Z,1.83
2022-10-05T14:34:45.141Z,2.00
2022-10-05T14:37:50.485Z,2.33
2022-10-05T14:41:10.791Z,2.45
2022-10-05T14:44:13.048Z,2.20
2022-10-05T14:47:24.317Z,2.30
2022-10-05T14:50:31.787Z,2.20
2022-10-05T14:53:40.446Z,2.30
2022-10-05T14:57:25.313Z,2.20
2022-10-05T15:00:28.782Z,2.05
2022-10-05T15:03:40.928Z,2.10
2022-10-05T15:06:47.001Z,2.10
2022-10-05T15:10:01.527Z,1.88
2022-10-05T15:13:24.118Z,2.10
2022-10-05T15:16:39.088Z,1.95
2022-10-05T15:20:01.994Z,2.00
2022-10-05T15:23:16.719Z,1.90
2022-10-05T15:26:30.746Z,2.10
2022-10-05T15:29:52.883Z,1.90
2022-10-05T15:32:57.386Z,1.90
2022-10-05T15:36:00.571Z,1.75
2022-10-05T15:39:32.626Z,1.80
2022-10-05T15:42:41.526Z,1.77
2022-10-05T15:46:19.186Z,2.00
2022-10-05T15:49:29.523Z,1.80
2022-10-05T15:52:31.904Z,1.90
2022-10-05T15:55:42.453Z,2.50
2022-10-05T15:58:56.846Z,1.85
2022-10-05T16:02:04.423Z,1.90
2022-10-05T16:05:19.996Z,2.10
2022-10-05T16:08:53.999Z,2.00
2022-10-05T16:12:13.583Z,1.90
2022-10-05T16:15:26.271Z,1.95
2022-10-05T16:19:02.860Z,2.33
2022-10-05T16:22:16.874Z,2.20
2022-10-05T16:25:40.071Z,2.15
2022-10-05T16:28:53.752Z,2.38
2022-10-05T16:32:17.260Z,2.38
2022-10-05T16:35:37.674Z,2.47
2022-10-05T16:38:59.097Z,2.40
2022-10-05T16:42:21.161Z,2.28
2022-10-05T16:45:46.212Z,2.30
2022-10-05T16:49:12.679Z,2.55
2022-10-05T16:52:20.307Z,2.40
2022-10-05T16:55:31.981Z,2.63
2022-10-05T16:58:33.433Z,2.65
2022-10-05T17:02:03.059Z,3.03
2022-10-05T17:05:22.801Z,2.60
2022-10-05T17:08:58.536Z,2.95
2022-10-05T17:12:26.742Z,3.08
2022-10-05T17:16:04.162Z,2.83
2022-10-05T17:19:24.078Z,3.13
2022-10-05T17:22:31.989Z,3.60
2022-10-05T17:26:09.756Z,3.22
2022-10-05T17:32:17.989Z,3.00
2022-10-05T17:36:12.783Z,2.90
2022-10-05T17:39:43.158Z,2.88
2022-10-05T17:42:47.158Z,2.70
2022-10-05T17:45:52.907Z,3.05
2022-10-05T17:48:54.427Z,2.50
2022-10-05T17:52:15.991Z,2.97
2022-10-05T17:55:29.941Z,2.60
2022-10-05T17:58:31.399Z,2.85
2022-10-05T19:57:32.261Z,2.22
2022-10-05T20:01:27.076Z,1.90
2022-10-05T20:04:44.850Z,2.35
2022-10-05T20:08:12.022Z,2.00
2022-10-05T20:16:38.386Z,1.83
2022-10-05T21:00:19.729Z,1.90
2022-10-05T21:19:18.915Z,1.77
2022-10-05T21:22:07.622Z,1.88
2022-10-05T21:27:24.231Z,1.55
2022-10-05T21:31:14.473Z,1.50
2022-10-05T21:34:23.351Z,2.00
2022-10-05T21:42:41.533Z,1.80
2022-10-05T21:53:08.791Z,2.07
2022-10-05T21:56:32.976Z,2.00
2022-10-05T21:59:53.329Z,1.80
2022-10-05T22:02:55.138Z,1.95
2022-10-05T22:09:12.524Z,1.70
2022-10-05T22:12:14.442Z,1.50
2022-10-05T22:37:05.229Z,1.80
2022-10-05T22:44:21.247Z,1.50
2022-10-05T22:47:29.802Z,1.88
2022-10-05T22:58:21.441Z,1.70
2022-10-05T23:01:39.664Z,1.40
2022-10-05T23:08:39.235Z,1.92
2022-10-05T23:12:12.509Z,1.65
2022-10-05T23:15:21.618Z,1.70
2022-10-05T23:18:48.208Z,1.55
2022-10-05T23:22:10.682Z,1.85
2022-10-05T23:26:13.406Z,1.63
2022-10-05T23:32:44.327Z,1.90
2022-10-05T23:39:52.091Z,1.90
